Time;durP1;ratioP1;P1;durP2;ratioP2;P2;SDS_P1;SDS_P2;PMS_P1;PMS_P2;Temp;Humidity;BMP_temperature;BMP_pressure;BME280_temperature;BME280_humidity;BME280_pressure;Samples;Min_cycle;Max_cycle;Signal;HPM_P1;HPM_P2
2021/12/11 00:00:40;;;;;;;25.10;11.00;;;;;;;3.00;100.00;100273.78;5066989;23;20045;-74
2021/12/11 00:03:34;;;;;;;21.92;10.38;;;;;;;2.88;100.00;100259.78;5010845;28;20078;-74
2021/12/11 00:06:21;;;;;;;22.73;10.52;;;;;;;2.95;100.00;100268.03;4994027;28;20057;-73
2021/12/11 00:08:50;;;;;;;23.98;10.60;;;;;;;2.94;100.00;100272.44;4993895;28;20026;-73
2021/12/11 00:11:40;;;;;;;23.10;10.35;;;;;;;3.05;100.00;100271.75;4994156;28;20029;-72
2021/12/11 00:14:09;;;;;;;22.25;10.32;;;;;;;2.88;100.00;100263.25;4993799;28;20030;-73
2021/12/11 00:16:37;;;;;;;21.20;10.18;;;;;;;2.98;100.00;100286.13;5010133;28;20033;-73
2021/12/11 00:19:19;;;;;;;21.00;10.32;;;;;;;2.91;100.00;100286.50;5011413;28;20022;-73
2021/12/11 00:21:46;;;;;;;21.05;10.55;;;;;;;2.99;100.00;100274.75;4994984;28;20033;-74
2021/12/11 00:24:25;;;;;;;22.00;10.10;;;;;;;3.06;100.00;100296.88;4980621;28;20409;-73
2021/12/11 00:27:03;;;;;;;21.95;10.48;;;;;;;2.66;100.00;100229.03;4980705;28;20045;-73
2021/12/11 00:29:32;;;;;;;22.38;10.77;;;;;;;2.49;100.00;100240.50;4996699;28;20026;-73
2021/12/11 00:32:04;;;;;;;25.60;11.27;;;;;;;3.09;100.00;100305.38;5013141;28;20033;-73
2021/12/11 00:34:32;;;;;;;21.98;11.55;;;;;;;2.87;100.00;100305.88;5011934;28;20022;-73
2021/12/11 00:37:05;;;;;;;26.63;11.68;;;;;;;2.87;100.00;100282.41;4981170;28;20029;-74
2021/12/11 00:39:37;;;;;;;22.80;11.32;;;;;;;2.67;100.00;100282.81;5016151;28;20093;-73
2021/12/11 00:42:06;;;;;;;23.15;10.23;;;;;;;3.10;100.00;100314.03;5000455;28;20026;-73
2021/12/11 00:44:46;;;;;;;25.92;10.98;;;;;;;3.16;100.00;100324.06;5019762;28;20069;-73
2021/12/11 00:47:22;;;;;;;30.08;11.32;;;;;;;2.80;100.00;100294.16;4999569;28;20022;-73
2021/12/11 00:50:06;;;;;;;28.88;11.55;;;;;;;2.98;100.00;100333.91;4998591;28;20096;-73
2021/12/11 00:52:37;;;;;;;23.90;11.50;;;;;;;3.04;100.00;100338.72;5017464;28;20037;-73
2021/12/11 00:55:22;;;;;;;27.67;10.65;;;;;;;2.79;100.00;100326.38;4996744;28;20368;-72
2021/12/11 00:57:51;;;;;;;25.17;11.40;;;;;;;2.92;100.00;100348.16;5014224;28;20022;-73
2021/12/11 01:00:22;;;;;;;23.65;11.75;;;;;;;3.00;100.00;100350.28;4996270;28;20038;-73
2021/12/11 01:02:53;;;;;;;24.63;10.10;;;;;;;2.82;100.00;100315.78;4995730;28;20096;-73
2021/12/11 01:05:24;;;;;;;21.17;10.75;;;;;;;2.79;100.00;100331.59;5012058;28;20038;-73
2021/12/11 01:07:50;;;;;;;24.13;11.10;;;;;;;2.72;100.00;100305.09;4980425;28;20029;-73
2021/12/11 01:10:23;;;;;;;25.50;11.40;;;;;;;3.06;100.00;100372.53;4995996;28;20032;-73
2021/12/11 01:12:58;;;;;;;26.02;10.77;;;;;;;3.11;100.00;100368.72;4996647;28;20030;-73
2021/12/11 01:15:31;;;;;;;25.48;11.43;;;;;;;3.12;100.00;100370.38;5013955;28;20622;-74
2021/12/11 01:20:56;;;;;;;23.05;11.05;;;;;;;2.79;100.00;100333.38;5014017;28;20037;-73
2021/12/11 01:23:46;;;;;;;22.67;10.25;;;;;;;2.96;100.00;100358.41;4996062;28;20101;-73
2021/12/11 01:26:16;;;;;;;23.75;10.38;;;;;;;3.03;100.00;100380.56;4996518;28;20026;-73
2021/12/11 01:28:42;;;;;;;21.15;9.48;;;;;;;3.08;100.00;100408.03;5013562;28;20033;-73
2021/12/11 01:31:12;;;;;;;26.40;9.65;;;;;;;2.93;100.00;100388.97;4995878;28;20396;-73
2021/12/11 01:33:38;;;;;;;23.45;11.15;;;;;;;2.98;100.00;100414.75;4996094;28;20022;-72
2021/12/11 01:36:06;;;;;;;26.00;10.32;;;;;;;2.54;100.00;100423.47;4995747;28;20022;-72
2021/12/11 01:38:32;;;;;;;25.38;10.02;;;;;;;2.49;100.00;100391.66;4995823;28;20033;-72
2021/12/11 01:41:03;;;;;;;20.27;10.40;;;;;;;2.64;100.00;100410.75;4996201;28;20022;-72
2021/12/11 01:43:32;;;;;;;23.73;11.07;;;;;;;2.63;100.00;100422.94;4996291;28;20033;-73
2021/12/11 01:46:00;;;;;;;25.05;11.10;;;;;;;2.81;100.00;100434.03;5013335;28;20472;-72
2021/12/11 01:48:38;;;;;;;23.48;10.82;;;;;;;2.98;100.00;100432.19;4980569;28;20032;-72
2021/12/11 01:51:18;;;;;;;21.70;10.68;;;;;;;2.63;100.00;100427.31;4982496;28;20440;-73
2021/12/11 01:53:51;;;;;;;22.92;10.95;;;;;;;2.68;100.00;100435.69;5014231;28;20542;-73
2021/12/11 01:56:21;;;;;;;21.00;9.80;;;;;;;2.56;100.00;100437.28;4996811;28;20451;-73
2021/12/11 01:59:15;;;;;;;26.92;10.82;;;;;;;2.78;100.00;100455.09;4980788;28;20092;-73
2021/12/11 02:02:06;;;;;;;20.88;10.18;;;;;;;2.75;100.00;100462.25;4996894;28;20050;-73
2021/12/11 02:04:36;;;;;;;23.38;10.18;;;;;;;2.58;100.00;100440.63;4957394;28;20049;-72
2021/12/11 02:07:23;;;;;;;25.75;11.77;;;;;;;2.87;100.00;100456.31;4959242;28;20070;-72
2021/12/11 02:09:57;;;;;;;24.30;10.70;;;;;;;3.01;100.00;100471.13;4931663;29;20070;-72
2021/12/11 02:12:31;;;;;;;22.38;10.52;;;;;;;3.10;100.00;100478.38;4952078;29;20038;-72
2021/12/11 02:14:59;;;;;;;;;;;;;;;3.00;100.00;100482.47;4966784;28;20470;-72
2021/12/11 02:17:52;;;;;;;22.13;10.27;;;;;;;3.17;100.00;100489.28;4963592;28;19914;-72
2021/12/11 02:20:28;;;;;;;23.63;11.18;;;;;;;2.83;100.00;100466.06;4962080;28;20462;-72
2021/12/11 02:22:54;;;;;;;23.63;10.23;;;;;;;2.70;100.00;100462.50;4958500;28;20094;-72
2021/12/11 02:25:28;;;;;;;29.48;11.10;;;;;;;2.44;100.00;100433.63;4974170;28;20077;-72
2021/12/11 02:28:01;;;;;;;24.42;11.32;;;;;;;2.84;100.00;100506.03;4975075;28;20043;-73
2021/12/11 02:30:33;;;;;;;26.02;11.88;;;;;;;2.55;100.00;100505.97;4975032;28;20030;-72
2021/12/11 02:33:15;;;;;;;30.00;11.73;;;;;;;2.85;100.00;100513.75;4959501;28;20042;-72
2021/12/11 02:36:10;;;;;;;24.02;10.70;;;;;;;2.95;100.00;100514.03;4975149;28;20039;-72
2021/12/11 02:39:07;;;;;;;23.17;11.25;;;;;;;2.87;100.00;100518.91;4973165;28;20073;-72
2021/12/11 02:41:49;;;;;;;23.92;11.90;;;;;;;2.82;100.00;100518.34;4958532;28;20428;-72
2021/12/11 02:44:26;;;;;;;27.80;11.85;;;;;;;2.46;100.00;100516.94;4997054;28;20030;-72
2021/12/11 02:47:09;;;;;;;26.05;11.32;;;;;;;2.65;100.00;100501.91;4995832;28;20581;-72
2021/12/11 02:49:51;;;;;;;26.48;11.45;;;;;;;2.83;100.00;100527.81;4995757;28;20357;-72
2021/12/11 02:52:37;;;;;;;26.92;11.20;;;;;;;2.71;100.00;100511.97;4995783;28;20030;-73
2021/12/11 02:55:14;;;;;;;31.30;12.85;;;;;;;2.64;100.00;100531.50;4995011;28;20099;-72
2021/12/11 02:58:08;;;;;;;27.63;12.48;;;;;;;2.33;100.00;100501.16;4994776;28;20026;-72
2021/12/11 03:00:40;;;;;;;32.95;13.95;;;;;;;2.42;100.00;100529.28;5012826;28;20029;-72
2021/12/11 03:03:13;;;;;;;29.83;12.52;;;;;;;2.48;100.00;100543.75;4978395;28;20030;-72
2021/12/11 03:05:51;;;;;;;26.88;13.07;;;;;;;2.24;100.00;100517.31;5012530;28;20136;-72
2021/12/11 03:08:21;;;;;;;31.85;13.70;;;;;;;2.24;100.00;100532.94;5012204;28;20038;-72
2021/12/11 03:10:51;;;;;;;30.50;13.45;;;;;;;2.24;100.00;100552.03;4995988;28;20318;-72
2021/12/11 03:13:17;;;;;;;32.17;14.27;;;;;;;2.14;100.00;100496.19;4979149;28;20479;-72
2021/12/11 03:15:42;;;;;;;33.95;14.13;;;;;;;2.60;100.00;100543.03;4994423;28;20104;-72
2021/12/11 03:18:10;;;;;;;35.20;14.10;;;;;;;2.19;100.00;100509.78;4994262;28;20210;-72
2021/12/11 03:20:38;;;;;;;30.83;13.60;;;;;;;2.19;100.00;100519.34;4978173;28;20369;-73
2021/12/11 03:23:07;;;;;;;35.55;14.10;;;;;;;2.37;100.00;100523.53;4994264;28;20026;-74
2021/12/11 03:25:34;;;;;;;35.85;14.77;;;;;;;2.54;100.00;100506.91;4994296;28;20466;-74
2021/12/11 03:28:03;;;;;;;36.67;14.98;;;;;;;2.59;100.00;100538.78;4994458;28;20105;-73
2021/12/11 03:30:39;;;;;;;40.78;14.73;;;;;;;2.48;100.00;100483.81;4994827;28;20437;-73
2021/12/11 03:33:13;;;;;;;35.08;13.82;;;;;;;2.45;100.00;100539.56;4977829;28;20053;-73
2021/12/11 03:35:40;;;;;;;29.48;12.48;;;;;;;2.68;100.00;100550.41;4994202;28;20025;-73
2021/12/11 03:38:07;;;;;;;30.55;12.98;;;;;;;2.64;100.00;100512.44;5012785;28;20384;-74
2021/12/11 03:40:32;;;;;;;31.98;13.52;;;;;;;2.53;100.00;100549.53;5011912;28;20112;-74
2021/12/11 03:43:00;;;;;;;28.55;12.52;;;;;;;2.33;100.00;100527.22;5012261;28;20106;-74
2021/12/11 03:45:33;;;;;;;34.17;13.23;;;;;;;2.03;100.00;100522.81;4994705;28;20057;-75
2021/12/11 03:48:07;;;;;;;31.52;13.05;;;;;;;1.98;100.00;100519.63;5013574;28;20105;-74
2021/12/11 03:50:33;;;;;;;36.22;14.20;;;;;;;2.13;100.00;100537.94;5011805;28;20380;-75
2021/12/11 03:52:59;;;;;;;34.53;14.93;;;;;;;2.09;100.00;100547.69;4995444;28;20076;-74
2021/12/11 03:55:34;;;;;;;34.17;14.00;;;;;;;2.29;100.00;100537.00;4994296;28;20050;-75
2021/12/11 03:58:01;;;;;;;34.78;14.43;;;;;;;2.09;100.00;100517.28;5011318;28;20105;-75
2021/12/11 04:00:34;;;;;;;33.35;14.30;;;;;;;2.34;100.00;100543.69;4994498;28;20125;-75
2021/12/11 04:03:04;;;;;;;34.90;14.57;;;;;;;2.02;100.00;100517.69;5013462;28;20405;-75
2021/12/11 04:05:32;;;;;;;33.25;14.73;;;;;;;2.39;100.00;100532.09;5029890;28;20091;-76
2021/12/11 04:07:59;;;;;;;36.47;14.10;;;;;;;2.13;100.00;100543.97;5031587;28;20026;-75
2021/12/11 04:10:27;;;;;;;33.47;14.85;;;;;;;2.47;100.00;100535.06;5016741;28;20060;-75
2021/12/11 04:12:57;;;;;;;35.50;14.02;;;;;;;1.92;100.00;100473.09;5002783;28;20071;-75
2021/12/11 04:15:23;;;;;;;32.58;14.68;;;;;;;2.14;100.00;100505.75;5020247;28;20111;-73
2021/12/11 04:17:49;;;;;;;40.15;15.90;;;;;;;2.29;100.00;100520.50;5003008;28;20021;-74
2021/12/11 04:20:19;;;;;;;38.15;15.05;;;;;;;2.56;100.00;100536.31;5017461;28;20029;-73
2021/12/11 04:22:46;;;;;;;35.20;15.38;;;;;;;2.21;100.00;100535.75;5035204;28;20057;-74
2021/12/11 04:25:14;;;;;;;37.20;14.50;;;;;;;2.40;100.00;100525.09;5033707;28;20029;-73
2021/12/11 04:27:40;;;;;;;37.60;15.30;;;;;;;2.16;100.00;100490.84;5035029;28;20104;-74
2021/12/11 04:30:09;;;;;;;37.50;15.00;;;;;;;2.21;100.00;100514.91;5001940;28;20093;-74
2021/12/11 04:32:37;;;;;;;44.20;15.77;;;;;;;2.18;100.00;100526.34;5018935;28;20399;-76
2021/12/11 04:35:07;;;;;;;38.35;14.98;;;;;;;2.42;100.00;100536.28;5021934;28;20444;-74
2021/12/11 04:37:34;;;;;;;39.47;16.77;;;;;;;2.11;100.00;100505.91;5004517;28;20463;-73
2021/12/11 04:40:06;;;;;;;33.50;15.00;;;;;;;2.20;100.00;100515.81;4989005;28;20026;-73
2021/12/11 04:42:56;;;;;;;38.00;15.70;;;;;;;2.04;100.00;100540.13;5009842;28;20158;-75
2021/12/11 04:45:34;;;;;;;43.90;15.43;;;;;;;2.25;100.00;100543.31;4980656;28;20125;-74
2021/12/11 04:48:13;;;;;;;40.97;16.02;;;;;;;2.45;100.00;100523.06;5014705;28;20058;-74
2021/12/11 04:50:52;;;;;;;33.58;14.50;;;;;;;2.74;100.00;100544.84;4997260;28;20018;-74
2021/12/11 04:56:32;;;;;;;46.28;15.73;;;;;;;2.32;100.00;100533.38;5016949;28;20427;-75
2021/12/11 05:01:52;;;;;;;40.10;15.02;;;;;;;2.50;100.00;100528.88;5022071;28;20053;-74
2021/12/11 05:04:51;;;;;;;37.28;14.70;;;;;;;2.68;100.00;100543.44;5005410;28;20029;-72
2021/12/11 05:07:20;;;;;;;38.28;14.57;;;;;;;2.52;100.00;100537.41;5022881;28;20061;-74
2021/12/11 05:09:57;;;;;;;35.38;14.20;;;;;;;2.71;100.00;100508.53;4985659;28;20033;-74
2021/12/11 05:14:52;;;;;;;35.55;12.95;;;;;;;2.58;100.00;100525.81;5019785;28;20109;-74
2021/12/11 05:17:19;;;;;;;32.22;13.45;;;;;;;2.89;100.00;100554.38;5019170;28;20025;-74
2021/12/11 05:19:47;;;;;;;37.28;13.48;;;;;;;2.98;100.00;100539.13;5018556;28;20013;-74
2021/12/11 05:22:14;;;;;;;36.60;12.48;;;;;;;2.88;100.00;100536.22;4989738;28;20412;-74
2021/12/11 05:24:43;;;;;;;31.75;12.73;;;;;;;2.79;100.00;100537.59;5031685;28;20109;-75
2021/12/11 05:27:09;;;;;;;34.50;12.57;;;;;;;3.24;100.00;100569.69;4996480;28;20030;-72
2021/12/11 05:29:36;;;;;;;33.40;13.35;;;;;;;3.37;100.00;100580.25;5009422;28;20076;-74
2021/12/11 05:32:05;;;;;;;32.97;13.98;;;;;;;2.87;100.00;100540.59;4997284;28;20093;-76
2021/12/11 05:34:32;;;;;;;30.25;14.30;;;;;;;3.08;100.00;100554.13;4992150;28;20430;-75
2021/12/11 05:36:58;;;;;;;33.80;14.02;;;;;;;3.22;100.00;100592.44;5010086;28;20093;-76
2021/12/11 05:39:24;;;;;;;33.10;14.07;;;;;;;3.07;100.00;100562.91;5020151;28;20139;-75
2021/12/11 05:41:54;;;;;;;35.28;15.07;;;;;;;3.22;100.00;100612.47;5015805;28;20030;-76
2021/12/11 05:44:23;;;;;;;33.95;14.57;;;;;;;3.23;100.00;100622.00;4998320;28;20048;-76
2021/12/11 05:46:59;;;;;;;37.45;14.02;;;;;;;3.03;100.00;100628.38;5017623;28;20073;-75
2021/12/11 05:49:28;;;;;;;31.73;14.60;;;;;;;2.67;100.00;100599.09;4996872;28;20029;-75
2021/12/11 05:51:56;;;;;;;35.28;14.27;;;;;;;2.73;100.00;100618.78;5012129;28;20029;-75
2021/12/11 05:54:25;;;;;;;40.03;15.07;;;;;;;2.93;100.00;100652.41;4996096;28;20029;-75
2021/12/11 05:56:57;;;;;;;34.70;15.02;;;;;;;2.78;100.00;100665.47;4996357;28;20056;-76
2021/12/11 05:59:23;;;;;;;35.60;15.55;;;;;;;2.68;100.00;100676.41;5014077;28;20375;-75
2021/12/11 06:02:06;;;;;;;37.17;15.30;;;;;;;2.82;100.00;100680.84;4995337;28;20053;-76
2021/12/11 06:04:35;;;;;;;38.88;15.43;;;;;;;2.81;100.00;100652.25;5018637;28;20042;-77
2021/12/11 06:07:07;;;;;;;39.10;15.95;;;;;;;2.73;100.00;100710.06;5017278;28;20029;-75
2021/12/11 06:09:34;;;;;;;38.25;16.27;;;;;;;2.65;100.00;100715.69;5001059;28;20018;-75
2021/12/11 06:12:05;;;;;;;40.72;16.92;;;;;;;2.58;100.00;100719.56;5002923;28;20064;-74
2021/12/11 06:14:34;;;;;;;36.28;15.48;;;;;;;2.42;100.00;100698.69;5020361;28;20113;-74
2021/12/11 06:17:03;;;;;;;37.88;16.20;;;;;;;2.70;100.00;100736.28;4998005;28;20026;-74
2021/12/11 06:19:29;;;;;;;36.67;15.65;;;;;;;2.69;100.00;100696.34;4996341;28;20472;-74
2021/12/11 06:21:56;;;;;;;34.80;15.25;;;;;;;2.66;100.00;100742.63;5005691;28;20065;-75
2021/12/11 06:24:24;;;;;;;39.85;15.88;;;;;;;2.25;100.00;100686.59;5024205;28;20032;-75
2021/12/11 06:26:51;;;;;;;34.20;15.20;;;;;;;2.43;100.00;100754.25;5015557;28;20021;-75
2021/12/11 06:29:17;;;;;;;40.92;16.00;;;;;;;2.22;100.00;100783.16;5015582;28;20071;-75
2021/12/11 06:31:44;;;;;;;36.45;15.02;;;;;;;2.29;100.00;100775.84;5013538;28;20033;-75
2021/12/11 06:34:11;;;;;;;40.80;15.40;;;;;;;2.20;100.00;100745.06;5026631;28;20056;-78
2021/12/11 06:36:42;;;;;;;37.55;16.30;;;;;;;2.39;100.00;100797.91;5023688;28;20033;-79
2021/12/11 06:39:16;;;;;;;36.58;15.77;;;;;;;2.34;100.00;100817.28;4996942;28;20036;-75
2021/12/11 06:41:44;;;;;;;35.28;15.35;;;;;;;2.28;100.00;100795.03;5015616;28;20542;-75
2021/12/11 06:44:12;;;;;;;35.72;14.98;;;;;;;2.41;100.00;100850.81;5037626;28;20029;-76
2021/12/11 06:46:40;;;;;;;36.67;15.98;;;;;;;2.04;100.00;100789.31;5000510;28;20121;-74
2021/12/11 06:49:09;;;;;;;34.67;14.88;;;;;;;2.08;100.00;100790.84;5030504;28;20021;-74
2021/12/11 06:51:35;;;;;;;34.17;15.77;;;;;;;2.30;100.00;100814.88;5029507;28;20043;-74
2021/12/11 06:54:06;;;;;;;33.88;14.57;;;;;;;2.39;100.00;100818.75;5013637;28;20059;-74
2021/12/11 06:56:34;;;;;;;37.55;16.13;;;;;;;2.36;100.00;100824.09;4997612;28;20022;-73
2021/12/11 06:59:00;;;;;;;36.00;16.55;;;;;;;1.99;100.00;100796.53;5032736;28;20025;-77
2021/12/11 07:01:28;;;;;;;38.33;15.02;;;;;;;2.00;100.00;100819.91;5032558;28;20080;-77
2021/12/11 07:03:57;;;;;;;40.53;16.45;;;;;;;2.34;100.00;100869.41;4995389;28;20046;-75
2021/12/11 07:06:27;;;;;;;41.05;16.67;;;;;;;2.14;100.00;100840.03;5016445;28;20026;-74
2021/12/11 07:08:54;;;;;;;40.38;15.52;;;;;;;2.34;100.00;100890.25;5031324;28;20025;-74
2021/12/11 07:11:22;;;;;;;35.85;15.38;;;;;;;2.29;100.00;100867.06;5030861;28;20029;-74
2021/12/11 07:13:47;;;;;;;41.20;16.40;;;;;;;2.58;100.00;100899.44;5032071;28;20017;-74
2021/12/11 07:16:13;;;;;;;39.05;14.70;;;;;;;2.48;100.00;100888.66;5032487;28;20132;-75
2021/12/11 07:18:39;;;;;;;34.67;15.70;;;;;;;2.26;100.00;100841.16;5014224;28;20053;-74
2021/12/11 07:21:07;;;;;;;36.58;16.08;;;;;;;2.62;100.00;100895.75;5015917;28;20029;-74
2021/12/11 07:23:35;;;;;;;37.85;16.60;;;;;;;2.56;100.00;100903.03;5033730;28;20465;-74
2021/12/11 07:26:13;;;;;;;36.17;16.48;;;;;;;2.31;100.00;100878.25;4999053;28;20127;-75
2021/12/11 07:28:46;;;;;;;37.85;15.93;;;;;;;2.43;100.00;100885.44;5015529;28;20032;-75
2021/12/11 07:31:12;;;;;;;42.08;15.95;;;;;;;2.34;100.00;100909.38;5033754;28;20021;-75
2021/12/11 07:33:42;;;;;;;37.25;16.15;;;;;;;2.53;100.00;100937.94;5015545;28;20033;-75
2021/12/11 07:36:09;;;;;;;36.33;15.40;;;;;;;2.00;100.00;100885.00;5014853;28;20018;-75
2021/12/11 07:38:35;;;;;;;35.63;15.50;;;;;;;2.61;100.00;100955.78;5015965;28;20036;-75
2021/12/11 07:41:08;;;;;;;38.20;15.15;;;;;;;2.25;100.00;100910.69;5031945;28;20029;-75
2021/12/11 07:43:35;;;;;;;35.22;15.80;;;;;;;2.29;100.00;100921.78;5002475;28;20101;-75
2021/12/11 07:46:04;;;;;;;37.88;15.48;;;;;;;2.44;100.00;100925.38;5039748;28;20037;-75
2021/12/11 07:48:30;;;;;;;31.95;13.63;;;;;;;2.46;100.00;100933.97;5037900;28;20045;-75
2021/12/11 07:50:56;;;;;;;41.85;16.60;;;;;;;2.62;100.00;100971.34;5018818;28;20029;-75
2021/12/11 07:53:23;;;;;;;35.15;15.27;;;;;;;2.36;100.00;100954.41;5040814;28;20025;-75
2021/12/11 07:55:49;;;;;;;36.03;15.90;;;;;;;2.56;100.00;100981.25;5039623;28;20079;-74
2021/12/11 07:58:15;;;;;;;41.53;16.20;;;;;;;2.52;100.00;100990.97;5037481;28;20460;-74
2021/12/11 08:00:48;;;;;;;39.72;15.43;;;;;;;2.43;100.00;100973.19;5003168;28;20033;-73
2021/12/11 08:03:25;;;;;;;37.10;15.52;;;;;;;2.22;100.00;100955.09;5036826;28;20550;-74
2021/12/11 08:05:52;;;;;;;34.10;14.95;;;;;;;2.18;100.00;100958.81;5019953;28;20063;-74
2021/12/11 08:08:21;;;;;;;37.10;16.33;;;;;;;2.11;100.00;100977.41;5034817;28;20498;-75
2021/12/11 08:11:00;;;;;;;36.33;16.15;;;;;;;2.24;100.00;101002.78;5018500;28;20395;-74
2021/12/11 08:13:28;;;;;;;38.90;16.90;;;;;;;2.31;100.00;100995.50;5019361;28;20032;-73
2021/12/11 08:15:55;;;;;;;35.22;16.00;;;;;;;2.23;100.00;101003.72;5018713;28;20028;-75
2021/12/11 08:18:27;;;;;;;41.70;16.45;;;;;;;2.32;100.00;100996.34;5017611;28;20028;-75
2021/12/11 08:20:53;;;;;;;35.30;15.20;;;;;;;2.50;100.00;101016.31;5018213;28;20049;-75
2021/12/11 08:23:20;;;;;;;36.92;16.27;;;;;;;2.43;100.00;101005.34;5018694;28;20482;-75
2021/12/11 08:25:47;;;;;;;40.05;17.83;;;;;;;2.50;100.00;101032.78;5018821;28;20022;-75
2021/12/11 08:28:17;;;;;;;43.35;17.25;;;;;;;2.53;100.00;101057.00;5036449;28;20060;-75
2021/12/11 08:30:46;;;;;;;46.28;17.10;;;;;;;2.23;100.00;101005.47;5036460;28;20025;-75
2021/12/11 08:33:13;;;;;;;38.90;17.42;;;;;;;2.04;100.00;100989.88;5036570;28;20021;-74
2021/12/11 08:35:40;;;;;;;43.17;18.88;;;;;;;2.26;100.00;101011.38;5034861;28;20029;-74
2021/12/11 08:38:08;;;;;;;40.35;17.90;;;;;;;2.45;100.00;101026.97;5036443;28;20475;-74
2021/12/11 08:40:37;;;;;;;44.15;18.92;;;;;;;2.66;100.00;101081.56;5018715;28;20026;-74
2021/12/11 08:43:05;;;;;;;43.30;18.55;;;;;;;2.35;100.00;101028.31;5019476;28;20057;-75
2021/12/11 08:45:45;;;;;;;40.75;18.42;;;;;;;2.51;100.00;101057.91;5020459;28;20026;-75
2021/12/11 08:48:20;;;;;;;44.72;17.80;;;;;;;2.55;100.00;101045.59;5030263;28;20018;-75
2021/12/11 08:51:07;;;;;;;37.78;17.85;;;;;;;2.69;100.00;101076.19;5052897;28;20120;-74
2021/12/11 08:53:33;;;;;;;39.58;17.65;;;;;;;2.73;100.00;101088.16;5034856;28;20013;-74
2021/12/11 08:56:00;;;;;;;38.30;17.50;;;;;;;2.36;100.00;101030.00;5046092;28;20021;-75
2021/12/11 08:58:29;;;;;;;47.97;19.70;;;;;;;2.63;100.00;101074.72;4999474;28;20025;-74
2021/12/11 09:01:02;;;;;;;47.75;19.02;;;;;;;2.81;100.00;101099.03;5039265;28;20050;-75
2021/12/11 09:03:38;;;;;;;44.08;19.83;;;;;;;2.80;100.00;101101.75;5018823;28;20048;-74
2021/12/11 09:06:10;;;;;;;47.67;18.95;;;;;;;2.92;100.00;101106.34;5038372;28;20420;-74
2021/12/11 09:08:48;;;;;;;41.88;18.98;;;;;;;2.55;100.00;101068.22;5037528;28;20495;-73
2021/12/11 09:11:31;;;;;;;42.33;19.00;;;;;;;2.42;100.00;101052.31;5021732;28;20031;-73
2021/12/11 09:14:04;;;;;;;48.45;19.67;;;;;;;3.14;100.00;101120.00;5038472;28;20026;-74
2021/12/11 09:16:33;;;;;;;41.42;18.65;;;;;;;2.87;100.00;101093.53;5019856;28;20037;-74
2021/12/11 09:19:07;;;;;;;41.78;18.33;;;;;;;2.95;100.00;101082.69;5017021;28;20032;-74
2021/12/11 09:21:39;;;;;;;42.15;19.55;;;;;;;3.18;100.00;101097.22;5034967;28;20025;-75
2021/12/11 09:24:13;;;;;;;39.15;18.00;;;;;;;3.09;100.00;101095.91;5035289;28;20040;-75
2021/12/11 09:26:58;;;;;;;40.97;18.83;;;;;;;3.48;100.00;101131.31;5017835;28;20036;-74
2021/12/11 09:29:27;;;;;;;43.45;18.27;;;;;;;3.31;100.00;101126.09;5001936;28;20029;-74
2021/12/11 09:32:12;;;;;;;42.17;18.67;;;;;;;3.53;100.00;101136.28;5005693;28;20112;-74
2021/12/11 09:34:53;;;;;;;45.47;19.38;;;;;;;3.41;100.00;101126.50;5017364;28;20032;-74
2021/12/11 09:37:19;;;;;;;37.08;17.70;;;;;;;3.81;100.00;101150.50;5040723;28;20036;-74
2021/12/11 09:40:00;;;;;;;41.92;17.80;;;;;;;3.51;100.00;101133.75;5024371;28;20028;-74
2021/12/11 09:42:26;;;;;;;36.28;16.40;;;;;;;4.12;100.00;101158.38;5041955;28;20022;-75
2021/12/11 09:44:59;;;;;;;39.38;16.42;;;;;;;4.03;100.00;101134.53;5022923;28;20025;-74
2021/12/11 09:47:31;;;;;;;40.10;17.00;;;;;;;3.91;100.00;101159.56;5020628;28;20026;-75
2021/12/11 09:50:04;;;;;;;36.47;16.70;;;;;;;3.76;100.00;101163.81;5034672;28;20022;-75
2021/12/11 09:52:32;;;;;;;40.55;16.65;;;;;;;4.09;100.00;101160.34;5035069;28;20106;-75
2021/12/11 09:55:06;;;;;;;37.40;16.88;;;;;;;4.07;100.00;101165.66;5016983;28;20056;-75
2021/12/11 09:57:38;;;;;;;37.05;16.38;;;;;;;3.91;100.00;101152.56;5017715;28;20030;-75
2021/12/11 10:00:13;;;;;;;36.55;16.10;;;;;;;3.87;100.00;101139.75;5015879;28;20036;-75
2021/12/11 10:02:41;;;;;;;;;;;;;;;4.30;100.00;101174.00;5033291;28;20076;-75
2021/12/11 10:05:29;;;;;;;37.40;15.57;;;;;;;4.16;100.00;101161.69;5015394;28;19994;-76
2021/12/11 10:08:25;;;;;;;36.83;16.33;;;;;;;3.86;100.00;101158.94;5017874;28;20037;-75
2021/12/11 10:10:53;;;;;;;38.20;16.38;;;;;;;3.74;100.00;101173.50;5032901;28;20041;-75
2021/12/11 10:13:19;;;;;;;36.45;16.05;;;;;;;3.93;100.00;101196.91;5015096;28;20479;-75
2021/12/11 10:15:45;;;;;;;33.67;15.98;;;;;;;3.79;100.00;101194.16;5015545;28;20026;-75
2021/12/11 10:18:16;;;;;;;33.63;16.08;;;;;;;3.77;100.00;101191.63;5032887;28;20032;-76
2021/12/11 10:20:57;;;;;;;35.00;15.93;;;;;;;3.71;100.00;101213.69;5017178;28;20030;-75
2021/12/11 10:23:30;;;;;;;38.83;14.93;;;;;;;3.87;100.00;101210.28;4999836;28;20025;-75
2021/12/11 10:26:00;;;;;;;36.53;15.65;;;;;;;3.71;100.00;101184.94;4999444;28;20040;-74
2021/12/11 10:28:33;;;;;;;37.38;15.93;;;;;;;3.48;100.00;101148.75;5002288;28;20055;-74
2021/12/11 10:31:07;;;;;;;31.98;14.90;;;;;;;3.42;100.00;101185.59;5019026;28;20116;-75
2021/12/11 10:33:33;;;;;;;37.05;15.77;;;;;;;3.75;100.00;101237.88;5040939;28;20037;-74
2021/12/11 10:36:04;;;;;;;33.80;15.02;;;;;;;3.69;100.00;101233.81;5018869;28;20037;-75
2021/12/11 10:38:30;;;;;;;37.78;16.02;;;;;;;3.81;100.00;101227.09;5016866;28;20021;-74
2021/12/11 10:41:00;;;;;;;33.05;15.15;;;;;;;3.82;100.00;101202.69;5015639;28;20079;-75
2021/12/11 10:43:32;;;;;;;30.23;13.75;;;;;;;3.84;100.00;101166.00;5017382;28;20033;-74
2021/12/11 10:45:59;;;;;;;32.08;14.70;;;;;;;4.21;100.00;101225.00;4982472;28;20022;-75
2021/12/11 10:48:34;;;;;;;28.83;13.23;;;;;;;4.35;100.00;101232.13;5014980;28;20025;-75
2021/12/11 10:51:11;;;;;;;26.77;12.45;;;;;;;4.31;100.00;101180.91;5000949;28;20447;-74
2021/12/11 10:53:42;;;;;;;27.50;13.52;;;;;;;4.48;100.00;101177.38;5015203;28;20034;-73
2021/12/11 10:56:09;;;;;;;29.52;12.27;;;;;;;5.14;100.00;101224.22;5015622;28;20029;-74
2021/12/11 10:58:40;;;;;;;26.92;11.80;;;;;;;5.09;100.00;101202.72;4999030;28;20526;-74
2021/12/11 11:01:09;;;;;;;26.02;11.23;;;;;;;5.86;100.00;101224.38;5017646;28;20049;-73
2021/12/11 11:03:38;;;;;;;24.52;11.77;;;;;;;6.04;100.00;101190.97;5019721;28;20124;-74
2021/12/11 11:06:06;;;;;;;24.95;10.90;;;;;;;6.48;100.00;101206.56;5018555;28;20071;-74
2021/12/11 11:08:33;;;;;;;22.00;10.70;;;;;;;6.28;100.00;101204.34;5017050;28;20086;-74
2021/12/11 11:11:07;;;;;;;24.63;10.95;;;;;;;5.90;100.00;101236.34;5020914;28;20036;-74
2021/12/11 11:13:33;;;;;;;27.08;10.68;;;;;;;5.82;100.00;101171.28;5020211;28;20021;-73
2021/12/11 11:15:59;;;;;;;23.05;9.90;;;;;;;6.39;100.00;101224.66;5038315;28;20029;-74
2021/12/11 11:18:29;;;;;;;22.50;10.23;;;;;;;6.21;100.00;101210.91;5019756;28;20443;-75
2021/12/11 11:21:08;;;;;;;23.13;10.80;;;;;;;6.92;100.00;101243.19;5018081;28;20030;-73
2021/12/11 11:23:36;;;;;;;20.40;9.98;;;;;;;9.98;100.00;101214.47;5032931;28;20025;-74
2021/12/11 11:28:37;;;;;;;18.48;8.48;;;;;;;8.59;100.00;101215.22;4960179;26;20049;-74
2021/12/11 11:31:15;;;;;;;19.77;7.57;;;;;;;9.78;100.00;101187.00;4997544;28;20042;-74
2021/12/11 11:33:47;;;;;;;15.10;6.70;;;;;;;9.28;100.00;101225.94;5016328;28;20029;-74
2021/12/11 11:36:19;;;;;;;20.67;7.32;;;;;;;7.70;100.00;101206.47;5014811;28;20387;-74
2021/12/11 11:38:50;;;;;;;23.70;7.80;;;;;;;7.04;100.00;101227.50;5013461;28;20049;-74
2021/12/11 11:41:22;;;;;;;20.42;7.82;;;;;;;6.67;100.00;101229.00;5013596;28;20025;-74
2021/12/11 11:43:51;;;;;;;18.73;7.22;;;;;;;6.93;100.00;101245.72;5013459;28;20026;-75